Junction City, Kansas
Current Conditions -  °F | °C
As of 7:58 AM on Saturday 20 Dec 2014 (Local Time) from KFRI Reporting Station
Clear Clear  
Wind Chill: 25°   Ceiling: Unl
Heat Index: 34°   Visibility: 8mi
Dew Point: 34°   Wind: 12mph
Humidity: 100%   Direction: 210°SSW
Pressure: 30.12"   Gusts: NA
Location:  39.03°N, 96.83°W
Report Text: KFRI 201358Z AUTO 21010KT 8SM CLR 01/01 A3012 RMK AO2 SLP207 T00090009
Loading
Personal Weather Stations






























Interactive Weather Map New forecast layout! Learn more

10-Day Weather Forecast

Advertisements
Track Severe Weather on mobile